Grange, Georgia
Current Conditions -  °F | °C
As of 12:55 PM on Saturday 25 Oct 2014 (Local Time) from KOKZ Reporting Station
Clear Clear  
Wind Chill: 73°   Ceiling: Unl
Heat Index: 73°   Visibility: 10mi
Dew Point: 49°   Wind: 0mph
Humidity: 44%   Direction: NA
Pressure: 30.05"   Gusts: NA
Location:  33.028°N, 82.379°W
Report Text: KOKZ 251655Z AUTO 00000KT 10SM CLR 23/10 A3005 RMK AO2 T02270097
Loading
Personal Weather Stations






























Interactive Weather Map
Tropical Storm Tracking
New forecast layout! Learn more

10-Day Weather Forecast

Advertisements
Track Severe Weather on mobile